Time,TemperatureF,DewpointF,PressureIn,WindDirection,WindDirectionDegrees,WindSpeedMPH,WindSpeedGustMPH,Humidity,HourlyPrecipIn,Conditions,Clouds,dailyrainin,SoftwareType,DateUTC
2013-02-20 00:01:00,50.0,33.0,30.14,North,0,0.0,0.0,52,0.00,,,0.00,,2013-02-20 06:01:00,
2013-02-20 00:11:00,50.0,33.0,30.14,North,0,0.0,0.0,52,0.00,,,0.00,,2013-02-20 06:11:00,
2013-02-20 00:21:00,50.0,33.0,30.14,North,0,0.0,0.0,52,0.00,,,0.00,,2013-02-20 06:21:00,
2013-02-20 00:31:00,51.0,33.0,30.14,North,0,0.0,0.0,50,0.00,,,0.00,,2013-02-20 06:31:00,
2013-02-20 00:42:00,51.0,33.0,30.14,North,0,0.0,0.0,50,0.00,,,0.00,,2013-02-20 06:42:00,
2013-02-20 00:51:00,51.0,34.0,30.15,North,0,0.0,0.0,51,0.00,,,0.00,,2013-02-20 06:51:00,
2013-02-20 01:01:00,51.0,34.0,30.16,North,0,0.0,0.0,51,0.00,,,0.00,,2013-02-20 07:01:00,
2013-02-20 01:11:00,51.0,34.0,30.16,North,0,0.0,0.0,51,0.00,,,0.00,,2013-02-20 07:11:00,
2013-02-20 01:21:00,51.0,33.0,30.15,North,0,0.0,0.0,49,0.00,,,0.00,,2013-02-20 07:21:00,
2013-02-20 01:31:00,51.0,33.0,30.15,North,0,0.0,0.0,49,0.00,,,0.00,,2013-02-20 07:31:00,
2013-02-20 01:41:00,51.0,33.0,30.15,North,0,0.0,0.0,49,0.00,,,0.00,,2013-02-20 07:41:00,
2013-02-20 01:51:00,51.0,33.0,30.15,North,0,0.0,0.0,49,0.00,,,0.00,,2013-02-20 07:51:00,
2013-02-20 02:05:00,50.0,32.0,30.15,North,0,0.0,0.0,50,0.00,,,0.00,,2013-02-20 08:05:00,
2013-02-20 02:11:00,50.0,32.0,30.15,North,0,0.0,0.0,50,0.00,,,0.00,,2013-02-20 08:11:00,
2013-02-20 02:21:00,50.0,34.0,30.14,North,0,0.0,0.0,55,0.00,,,0.00,,2013-02-20 08:21:00,
2013-02-20 02:31:00,49.0,34.0,30.13,North,0,0.0,0.0,56,0.00,,,0.00,,2013-02-20 08:31:00,
2013-02-20 02:41:00,49.0,34.0,30.13,North,0,0.0,0.0,56,0.00,,,0.00,,2013-02-20 08:41:00,
2013-02-20 02:52:00,49.0,34.0,30.13,North,0,0.0,0.0,56,0.00,,,0.00,,2013-02-20 08:52:00,
2013-02-20 03:01:00,49.0,35.0,30.09,North,0,0.0,0.0,59,0.00,,,0.00,,2013-02-20 09:01:00,
2013-02-20 03:11:00,49.0,35.0,30.09,North,0,0.0,0.0,59,0.00,,,0.00,,2013-02-20 09:11:00,
2013-02-20 03:21:00,48.0,35.0,30.09,North,0,0.0,0.0,60,0.01,,,0.01,,2013-02-20 09:21:00,
2013-02-20 03:31:00,48.0,35.0,30.09,North,0,0.0,0.0,61,0.01,,,0.01,,2013-02-20 09:31:00,
2013-02-20 03:42:00,48.0,35.0,30.09,North,0,0.0,0.0,61,0.01,,,0.01,,2013-02-20 09:42:00,
2013-02-20 03:51:00,49.0,36.0,30.09,North,0,0.0,0.0,61,0.01,,,0.01,,2013-02-20 09:51:00,
2013-02-20 04:01:00,49.0,35.0,30.10,North,0,0.0,0.0,59,0.01,,,0.01,,2013-02-20 10:01:00,
2013-02-20 04:12:00,49.0,35.0,30.10,North,0,0.0,0.0,59,0.01,,,0.01,,2013-02-20 10:12:00,
2013-02-20 04:22:00,48.0,35.0,30.13,North,0,0.0,0.0,61,0.00,,,0.01,,2013-02-20 10:22:00,
2013-02-20 04:32:00,48.0,38.0,30.16,North,0,0.0,0.0,67,0.00,,,0.01,,2013-02-20 10:32:00,
2013-02-20 04:41:00,48.0,38.0,30.16,North,0,0.0,0.0,67,0.00,,,0.01,,2013-02-20 10:41:00,
2013-02-20 04:51:00,48.0,38.0,30.16,North,0,0.0,0.0,67,0.00,,,0.01,,2013-02-20 10:51:00,
2013-02-20 05:02:00,47.0,38.0,30.13,North,0,0.0,0.0,70,0.00,,,0.01,,2013-02-20 11:02:00,
2013-02-20 05:11:00,46.0,38.0,30.11,North,0,0.0,0.0,73,0.00,,,0.01,,2013-02-20 11:11:00,
2013-02-20 05:21:00,46.0,38.0,30.11,North,0,0.0,0.0,73,0.00,,,0.01,,2013-02-20 11:21:00,
2013-02-20 05:32:00,45.0,38.0,30.11,North,0,0.0,0.0,75,0.00,,,0.01,,2013-02-20 11:32:00,
2013-02-20 05:41:00,45.0,38.0,30.11,North,0,0.0,0.0,75,0.00,,,0.01,,2013-02-20 11:41:00,
2013-02-20 05:52:00,45.0,38.0,30.11,North,0,0.0,0.0,75,0.00,,,0.01,,2013-02-20 11:52:00,
2013-02-20 06:02:00,45.0,37.0,30.07,North,0,0.0,0.0,74,0.00,,,0.01,,2013-02-20 12:02:00,
2013-02-20 06:12:00,45.0,37.0,30.07,North,0,0.0,0.0,74,0.00,,,0.01,,2013-02-20 12:12:00,
2013-02-20 06:21:00,45.0,37.0,30.07,North,0,0.0,0.0,74,0.00,,,0.01,,2013-02-20 12:21:00,
2013-02-20 06:32:00,45.0,36.0,30.11,North,0,0.0,0.0,70,0.00,,,0.01,,2013-02-20 12:32:00,
2013-02-20 06:42:00,45.0,36.0,30.11,North,0,0.0,0.0,70,0.00,,,0.01,,2013-02-20 12:42:00,
2013-02-20 06:53:00,45.0,36.0,30.09,North,0,0.0,0.0,70,0.00,,,0.01,,2013-02-20 12:53:00,
2013-02-20 07:01:00,45.0,37.0,30.07,North,0,0.0,0.0,73,0.01,,,0.02,,2013-02-20 13:01:00,
2013-02-20 07:11:00,45.0,37.0,30.07,North,0,0.0,0.0,73,0.01,,,0.02,,2013-02-20 13:11:00,
2013-02-20 07:22:00,44.0,36.0,30.08,North,0,0.0,0.0,74,0.01,,,0.02,,2013-02-20 13:22:00,
2013-02-20 07:31:00,44.0,37.0,30.08,North,0,0.0,0.0,75,0.01,,,0.02,,2013-02-20 13:31:00,
2013-02-20 07:42:00,44.0,37.0,30.08,North,0,0.0,0.0,75,0.01,,,0.02,,2013-02-20 13:42:00,
2013-02-20 07:51:00,44.0,36.0,30.08,North,0,0.0,0.0,74,0.01,,,0.02,,2013-02-20 13:51:00,
2013-02-20 08:01:00,44.0,37.0,30.10,North,0,0.0,0.0,76,0.00,,,0.02,,2013-02-20 14:01:00,
2013-02-20 08:11:00,44.0,37.0,30.10,North,0,0.0,0.0,76,0.00,,,0.02,,2013-02-20 14:11:00,
2013-02-20 08:21:00,44.0,37.0,30.15,North,0,0.0,0.0,76,0.00,,,0.02,,2013-02-20 14:21:00,
2013-02-20 08:32:00,43.0,38.0,30.14,North,0,0.0,0.0,83,0.01,,,0.03,,2013-02-20 14:32:00,
2013-02-20 08:42:00,43.0,38.0,30.14,North,0,0.0,0.0,83,0.01,,,0.03,,2013-02-20 14:42:00,
2013-02-20 08:52:00,43.0,38.0,30.18,North,0,0.0,0.0,84,0.01,,,0.03,,2013-02-20 14:52:00,
2013-02-20 09:01:00,43.0,38.0,30.15,North,0,0.0,0.0,83,0.01,,,0.03,,2013-02-20 15:01:00,
2013-02-20 09:11:00,43.0,38.0,30.15,North,0,0.0,0.0,83,0.01,,,0.03,,2013-02-20 15:11:00,
2013-02-20 09:22:00,43.0,38.0,30.15,North,0,0.0,0.0,83,0.01,,,0.03,,2013-02-20 15:22:00,
2013-02-20 09:32:00,43.0,38.0,30.12,North,0,0.0,0.0,82,0.00,,,0.03,,2013-02-20 15:32:00,
2013-02-20 09:42:00,44.0,39.0,30.11,North,0,0.0,0.0,82,0.00,,,0.03,,2013-02-20 15:42:00,
2013-02-20 09:52:00,44.0,39.0,30.11,North,0,0.0,0.0,82,0.00,,,0.03,,2013-02-20 15:52:00,
2013-02-20 10:01:00,44.0,39.0,30.17,North,0,0.0,0.0,82,0.01,,,0.04,,2013-02-20 16:01:00,
2013-02-20 10:11:00,44.0,39.0,30.17,North,0,0.0,0.0,82,0.01,,,0.04,,2013-02-20 16:11:00,
2013-02-20 10:21:00,44.0,39.0,30.17,North,0,0.0,0.0,82,0.01,,,0.04,,2013-02-20 16:21:00,
2013-02-20 10:32:00,43.0,40.0,30.08,North,0,0.0,0.0,90,0.07,,,0.10,,2013-02-20 16:32:00,
2013-02-20 10:42:00,43.0,40.0,30.08,North,0,0.0,0.0,90,0.07,,,0.10,,2013-02-20 16:42:00,
2013-02-20 10:52:00,44.0,41.0,30.09,North,0,0.0,0.0,90,0.07,,,0.10,,2013-02-20 16:52:00,
2013-02-20 11:01:00,44.0,41.0,30.10,North,0,0.0,0.0,88,0.04,,,0.10,,2013-02-20 17:01:00,
2013-02-20 11:11:00,44.0,40.0,30.08,North,0,0.0,0.0,87,0.02,,,0.10,,2013-02-20 17:11:00,
2013-02-20 11:21:00,44.0,40.0,30.08,North,0,0.0,0.0,87,0.02,,,0.10,,2013-02-20 17:21:00,
2013-02-20 11:32:00,44.0,40.0,30.07,North,0,0.0,0.0,85,0.01,,,0.11,,2013-02-20 17:32:00,
2013-02-20 11:42:00,44.0,40.0,30.07,North,0,0.0,0.0,85,0.01,,,0.11,,2013-02-20 17:42:00,
2013-02-20 11:52:00,44.0,40.0,30.07,North,0,0.0,0.0,85,0.01,,,0.11,,2013-02-20 17:52:00,
2013-02-20 12:02:00,44.0,39.0,30.06,East,85,13.0,22.0,83,0.01,,,0.11,,2013-02-20 18:02:00,
2013-02-20 12:11:00,44.0,39.0,30.06,East,85,13.0,22.0,83,0.01,,,0.11,,2013-02-20 18:11:00,
2013-02-20 12:21:00,44.0,39.0,30.05,East,98,13.0,23.0,84,0.01,,,0.11,,2013-02-20 18:21:00,
2013-02-20 12:32:00,44.0,39.0,30.03,East,85,14.0,20.0,82,0.00,,,0.11,,2013-02-20 18:32:00,
2013-02-20 12:42:00,44.0,39.0,30.03,East,85,14.0,20.0,82,0.00,,,0.11,,2013-02-20 18:42:00,
2013-02-20 12:51:00,44.0,39.0,30.03,East,89,17.0,25.0,81,0.00,,,0.11,,2013-02-20 18:51:00,
2013-02-20 13:01:00,44.0,39.0,30.03,East,88,13.0,25.0,81,0.00,,,0.11,,2013-02-20 19:01:00,
2013-02-20 13:11:00,44.0,39.0,30.03,East,88,13.0,25.0,81,0.00,,,0.11,,2013-02-20 19:11:00,
2013-02-20 13:21:00,44.0,38.0,30.03,ESE,103,14.0,22.0,80,0.00,,,0.11,,2013-02-20 19:21:00,
2013-02-20 13:31:00,44.0,39.0,30.01,East,93,12.0,21.0,81,0.00,,,0.11,,2013-02-20 19:31:00,
2013-02-20 13:41:00,44.0,39.0,30.01,East,93,12.0,21.0,81,0.00,,,0.11,,2013-02-20 19:41:00,
2013-02-20 13:51:00,44.0,39.0,30.01,East,93,12.0,21.0,81,0.00,,,0.11,,2013-02-20 19:51:00,
2013-02-20 14:01:00,44.0,37.0,29.98,East,87,15.0,24.0,77,0.00,,,0.11,,2013-02-20 20:01:00,
2013-02-20 14:11:00,44.0,37.0,29.98,East,93,18.0,25.0,77,0.00,,,0.11,,2013-02-20 20:11:00,
2013-02-20 14:21:00,44.0,37.0,29.98,East,93,18.0,25.0,77,0.00,,,0.11,,2013-02-20 20:21:00,
2013-02-20 14:31:00,44.0,37.0,29.98,East,86,16.0,23.0,75,0.00,,,0.11,,2013-02-20 20:31:00,
2013-02-20 14:41:00,44.0,38.0,29.98,East,100,12.0,18.0,79,0.00,,,0.11,,2013-02-20 20:41:00,
2013-02-20 14:51:00,44.0,38.0,29.98,East,100,12.0,18.0,79,0.00,,,0.11,,2013-02-20 20:51:00,
2013-02-20 15:01:00,44.0,38.0,29.99,East,88,10.0,20.0,78,0.00,,,0.11,,2013-02-20 21:01:00,
2013-02-20 15:11:00,44.0,38.0,29.99,ENE,76,12.0,18.0,78,0.00,,,0.11,,2013-02-20 21:11:00,
2013-02-20 15:21:00,44.0,38.0,29.99,ENE,76,12.0,18.0,78,0.00,,,0.11,,2013-02-20 21:21:00,
2013-02-20 15:31:00,44.0,37.0,29.97,East,92,14.0,22.0,77,0.00,,,0.11,,2013-02-20 21:31:00,
2013-02-20 15:41:00,44.0,37.0,29.97,East,92,14.0,22.0,77,0.00,,,0.11,,2013-02-20 21:41:00,
2013-02-20 15:51:00,44.0,37.0,29.96,ENE,67,13.0,21.0,77,0.00,,,0.11,,2013-02-20 21:51:00,
2013-02-20 16:01:00,44.0,37.0,29.94,East,88,13.0,17.0,77,0.00,,,0.11,,2013-02-20 22:01:00,
2013-02-20 16:11:00,44.0,37.0,29.95,East,94,14.0,24.0,75,0.00,,,0.11,,2013-02-20 22:11:00,
2013-02-20 16:21:00,44.0,37.0,29.95,East,94,14.0,24.0,75,0.00,,,0.11,,2013-02-20 22:21:00,
2013-02-20 16:31:00,44.0,38.0,29.94,North,0,0.0,0.0,78,0.00,,,0.11,,2013-02-20 22:31:00,
2013-02-20 16:42:00,44.0,38.0,29.94,North,0,0.0,0.0,78,0.00,,,0.11,,2013-02-20 22:42:00,
2013-02-20 16:51:00,44.0,37.0,29.94,North,0,0.0,0.0,77,0.00,,,0.11,,2013-02-20 22:51:00,
2013-02-20 17:01:00,44.0,39.0,29.94,North,0,0.0,0.0,81,0.00,,,0.11,,2013-02-20 23:01:00,
2013-02-20 17:12:00,43.0,38.0,29.93,North,0,0.0,0.0,81,0.00,,,0.11,,2013-02-20 23:12:00,
2013-02-20 17:22:00,43.0,38.0,29.93,North,0,0.0,0.0,81,0.00,,,0.11,,2013-02-20 23:22:00,
2013-02-20 17:32:00,43.0,38.0,29.92,North,0,0.0,0.0,82,0.00,,,0.11,,2013-02-20 23:32:00,
2013-02-20 17:42:00,43.0,38.0,29.92,North,0,0.0,0.0,82,0.00,,,0.11,,2013-02-20 23:42:00,
2013-02-20 17:52:00,43.0,38.0,29.92,North,0,0.0,0.0,83,0.00,,,0.11,,2013-02-20 23:52:00,
2013-02-20 18:03:00,43.0,38.0,29.92,North,0,0.0,0.0,83,0.00,,,0.11,,2013-02-21 00:03:00,
2013-02-20 18:11:00,43.0,38.0,29.92,North,0,0.0,0.0,83,0.00,,,0.11,,2013-02-21 00:11:00,
2013-02-20 18:21:00,42.0,37.0,29.91,North,0,0.0,0.0,83,0.00,,,0.11,,2013-02-21 00:21:00,
2013-02-20 18:32:00,42.0,38.0,29.91,North,0,0.0,0.0,84,0.00,,,0.11,,2013-02-21 00:32:00,
2013-02-20 18:42:00,42.0,38.0,29.91,North,0,0.0,0.0,84,0.00,,,0.11,,2013-02-21 00:42:00,
2013-02-20 18:52:00,41.0,37.0,29.91,North,0,0.0,0.0,84,0.00,,,0.11,,2013-02-21 00:52:00,
2013-02-20 19:01:00,41.0,37.0,29.92,North,0,0.0,0.0,84,0.00,,,0.11,,2013-02-21 01:01:00,
2013-02-20 19:11:00,41.0,37.0,29.92,North,0,0.0,0.0,84,0.00,,,0.11,,2013-02-21 01:11:00,
2013-02-20 19:21:00,41.0,37.0,29.92,North,0,0.0,0.0,84,0.00,,,0.11,,2013-02-21 01:21:00,
2013-02-20 19:32:00,41.0,37.0,29.92,North,0,0.0,0.0,84,0.00,,,0.11,,2013-02-21 01:32:00,
2013-02-20 19:41:00,41.0,37.0,29.92,North,0,0.0,0.0,84,0.00,,,0.11,,2013-02-21 01:41:00,
2013-02-20 19:51:00,41.0,37.0,29.91,North,0,0.0,0.0,85,0.00,,,0.11,,2013-02-21 01:51:00,
2013-02-20 20:01:00,41.0,37.0,29.91,North,0,0.0,0.0,84,0.00,,,0.11,,2013-02-21 02:01:00,
2013-02-20 20:11:00,41.0,37.0,29.91,North,0,0.0,0.0,84,0.00,,,0.11,,2013-02-21 02:11:00,
2013-02-20 20:21:00,41.0,37.0,29.91,North,0,0.0,0.0,84,0.00,,,0.11,,2013-02-21 02:21:00,
2013-02-20 20:32:00,41.0,37.0,29.91,North,0,0.0,0.0,85,0.00,,,0.11,,2013-02-21 02:32:00,
2013-02-20 20:42:00,41.0,37.0,29.91,North,0,0.0,0.0,85,0.00,,,0.11,,2013-02-21 02:42:00,
2013-02-20 20:51:00,41.0,37.0,29.91,North,0,0.0,0.0,85,0.00,,,0.11,,2013-02-21 02:51:00,
2013-02-20 21:01:00,41.0,36.0,29.89,North,0,0.0,0.0,83,0.00,,,0.11,,2013-02-21 03:01:00,
2013-02-20 21:12:00,41.0,36.0,29.89,North,0,0.0,0.0,83,0.00,,,0.11,,2013-02-21 03:12:00,
2013-02-20 21:21:00,41.0,36.0,29.88,North,0,0.0,0.0,83,0.00,,,0.11,,2013-02-21 03:21:00,
2013-02-20 21:32:00,41.0,36.0,29.88,North,0,0.0,0.0,82,0.00,,,0.11,,2013-02-21 03:32:00,
2013-02-20 21:41:00,41.0,36.0,29.88,North,0,0.0,0.0,82,0.00,,,0.11,,2013-02-21 03:41:00,
2013-02-20 21:51:00,41.0,36.0,29.87,North,0,0.0,0.0,82,0.00,,,0.11,,2013-02-21 03:51:00,
2013-02-20 22:01:00,41.0,36.0,29.86,North,0,0.0,0.0,81,0.00,,,0.11,,2013-02-21 04:01:00,
2013-02-20 22:11:00,41.0,36.0,29.86,North,0,0.0,0.0,81,0.00,,,0.11,,2013-02-21 04:11:00,
2013-02-20 22:21:00,41.0,36.0,29.85,North,0,0.0,0.0,82,0.00,,,0.11,,2013-02-21 04:21:00,
2013-02-20 22:32:00,41.0,36.0,29.84,North,0,0.0,0.0,81,0.00,,,0.11,,2013-02-21 04:32:00,
2013-02-20 22:42:00,41.0,36.0,29.84,North,0,0.0,0.0,81,0.00,,,0.11,,2013-02-21 04:42:00,
2013-02-20 22:51:00,41.0,36.0,29.84,North,0,0.0,0.0,81,0.00,,,0.11,,2013-02-21 04:51:00,
2013-02-20 23:02:00,41.0,35.0,29.83,North,0,0.0,0.0,80,0.00,,,0.11,,2013-02-21 05:02:00,
2013-02-20 23:12:00,41.0,35.0,29.83,North,0,0.0,0.0,80,0.00,,,0.11,,2013-02-21 05:12:00,
2013-02-20 23:22:00,42.0,36.0,29.83,North,0,0.0,0.0,79,0.00,,,0.11,,2013-02-21 05:22:00,
2013-02-20 23:34:00,42.0,36.0,29.81,North,0,0.0,0.0,79,0.00,,,0.11,,2013-02-21 05:34:00,
2013-02-20 23:43:00,42.0,36.0,29.81,North,0,0.0,0.0,79,0.00,,,0.11,,2013-02-21 05:43:00,
2013-02-20 23:52:00,42.0,36.0,29.81,North,0,0.0,0.0,78,0.00,,,0.11,,2013-02-21 05:52:00,